sensor_id;sensor_type;location;lat;lon;timestamp;temperature;humidity
45489;DHT22;31236;55.026;61.042;2022-08-05T00:01:44;13.80;87.80
45489;DHT22;31236;55.026;61.042;2022-08-05T00:04:15;13.80;88.20
45489;DHT22;31236;55.026;61.042;2022-08-05T00:06:45;13.70;88.40
45489;DHT22;31236;55.026;61.042;2022-08-05T00:09:15;13.80;88.30
45489;DHT22;31236;55.026;61.042;2022-08-05T00:11:45;13.90;88.10
45489;DHT22;31236;55.026;61.042;2022-08-05T00:14:19;13.90;87.80
45489;DHT22;31236;55.026;61.042;2022-08-05T00:16:49;13.90;87.70
45489;DHT22;31236;55.026;61.042;2022-08-05T00:19:20;14.00;87.90
45489;DHT22;31236;55.026;61.042;2022-08-05T00:21:53;13.90;88.10
45489;DHT22;31236;55.026;61.042;2022-08-05T00:24:25;13.90;88.30
45489;DHT22;31236;55.026;61.042;2022-08-05T00:26:55;13.80;88.50
45489;DHT22;31236;55.026;61.042;2022-08-05T00:29:29;13.70;89.10
45489;DHT22;31236;55.026;61.042;2022-08-05T00:31:59;13.60;89.20
45489;DHT22;31236;55.026;61.042;2022-08-05T00:34:33;13.60;89.20
45489;DHT22;31236;55.026;61.042;2022-08-05T00:37:05;13.80;89.00
45489;DHT22;31236;55.026;61.042;2022-08-05T00:39:35;13.80;88.70
45489;DHT22;31236;55.026;61.042;2022-08-05T00:42:06;13.90;88.70
45489;DHT22;31236;55.026;61.042;2022-08-05T00:44:42;13.90;88.80
45489;DHT22;31236;55.026;61.042;2022-08-05T00:47:13;13.90;89.00
45489;DHT22;31236;55.026;61.042;2022-08-05T00:49:45;13.90;89.20
45489;DHT22;31236;55.026;61.042;2022-08-05T00:52:15;13.90;89.50
45489;DHT22;31236;55.026;61.042;2022-08-05T00:54:47;13.90;89.90
45489;DHT22;31236;55.026;61.042;2022-08-05T00:57:19;13.90;90.10
45489;DHT22;31236;55.026;61.042;2022-08-05T00:59:49;13.90;90.20
45489;DHT22;31236;55.026;61.042;2022-08-05T01:02:19;13.90;90.40
45489;DHT22;31236;55.026;61.042;2022-08-05T01:04:50;13.90;90.50
45489;DHT22;31236;55.026;61.042;2022-08-05T01:07:20;13.90;90.50
45489;DHT22;31236;55.026;61.042;2022-08-05T01:09:50;14.00;90.40
45489;DHT22;31236;55.026;61.042;2022-08-05T01:12:21;14.00;90.40
45489;DHT22;31236;55.026;61.042;2022-08-05T01:30:17;14.00;90.20
45489;DHT22;31236;55.026;61.042;2022-08-05T01:32:51;13.90;90.30
45489;DHT22;31236;55.026;61.042;2022-08-05T01:35:24;14.20;89.70
45489;DHT22;31236;55.026;61.042;2022-08-05T01:37:56;14.50;88.30
45489;DHT22;31236;55.026;61.042;2022-08-05T01:40:28;14.50;89.00
45489;DHT22;31236;55.026;61.042;2022-08-05T01:43:01;14.50;89.10
45489;DHT22;31236;55.026;61.042;2022-08-05T01:45:33;14.60;89.20
45489;DHT22;31236;55.026;61.042;2022-08-05T01:48:06;14.60;90.10
45489;DHT22;31236;55.026;61.042;2022-08-05T01:50:38;14.60;90.30
45489;DHT22;31236;55.026;61.042;2022-08-05T01:53:29;14.60;90.60
45489;DHT22;31236;55.026;61.042;2022-08-05T01:56:01;14.60;90.80
45489;DHT22;31236;55.026;61.042;2022-08-05T01:58:33;14.60;91.00
45489;DHT22;31236;55.026;61.042;2022-08-05T02:01:04;14.70;91.10
45489;DHT22;31236;55.026;61.042;2022-08-05T02:03:36;14.70;91.20
45489;DHT22;31236;55.026;61.042;2022-08-05T02:06:07;14.70;91.10
45489;DHT22;31236;55.026;61.042;2022-08-05T02:08:40;14.70;91.10
45489;DHT22;31236;55.026;61.042;2022-08-05T02:11:12;14.80;91.00
45489;DHT22;31236;55.026;61.042;2022-08-05T02:16:54;14.80;90.90
45489;DHT22;31236;55.026;61.042;2022-08-05T02:25:43;14.90;91.00
45489;DHT22;31236;55.026;61.042;2022-08-05T02:28:51;15.00;91.20
45489;DHT22;31236;55.026;61.042;2022-08-05T02:31:13;15.20;91.30
45489;DHT22;31236;55.026;61.042;2022-08-05T02:33:47;15.30;91.30
45489;DHT22;31236;55.026;61.042;2022-08-05T02:36:21;15.40;91.30
45489;DHT22;31236;55.026;61.042;2022-08-05T02:38:55;15.50;91.40
45489;DHT22;31236;55.026;61.042;2022-08-05T02:41:28;15.60;91.60
45489;DHT22;31236;55.026;61.042;2022-08-05T02:44:02;15.70;91.70
45489;DHT22;31236;55.026;61.042;2022-08-05T02:49:23;15.90;91.60
45489;DHT22;31236;55.026;61.042;2022-08-05T02:51:55;16.10;91.60
45489;DHT22;31236;55.026;61.042;2022-08-05T02:54:28;16.20;91.60
45489;DHT22;31236;55.026;61.042;2022-08-05T02:57:00;16.30;91.50
45489;DHT22;31236;55.026;61.042;2022-08-05T02:59:31;16.40;91.70
45489;DHT22;31236;55.026;61.042;2022-08-05T03:02:03;16.50;91.70
45489;DHT22;31236;55.026;61.042;2022-08-05T03:04:35;16.70;91.70
45489;DHT22;31236;55.026;61.042;2022-08-05T03:07:07;16.80;91.70
45489;DHT22;31236;55.026;61.042;2022-08-05T03:09:41;17.00;91.70
45489;DHT22;31236;55.026;61.042;2022-08-05T03:15:03;17.30;91.30
45489;DHT22;31236;55.026;61.042;2022-08-05T03:17:34;17.40;91.10
45489;DHT22;31236;55.026;61.042;2022-08-05T03:20:05;17.50;91.10
45489;DHT22;31236;55.026;61.042;2022-08-05T03:22:35;17.60;91.00
45489;DHT22;31236;55.026;61.042;2022-08-05T03:25:06;17.70;90.90
45489;DHT22;31236;55.026;61.042;2022-08-05T03:27:38;17.80;90.90
45489;DHT22;31236;55.026;61.042;2022-08-05T03:30:09;18.00;90.80
45489;DHT22;31236;55.026;61.042;2022-08-05T03:32:39;18.10;90.60
45489;DHT22;31236;55.026;61.042;2022-08-05T03:35:13;18.30;90.50
45489;DHT22;31236;55.026;61.042;2022-08-05T03:37:45;18.40;90.50
45489;DHT22;31236;55.026;61.042;2022-08-05T03:40:15;18.50;90.20
45489;DHT22;31236;55.026;61.042;2022-08-05T03:42:45;18.70;90.00
45489;DHT22;31236;55.026;61.042;2022-08-05T03:45:15;18.90;89.30
45489;DHT22;31236;55.026;61.042;2022-08-05T03:47:45;19.10;88.90
45489;DHT22;31236;55.026;61.042;2022-08-05T03:50:15;19.20;86.30
45489;DHT22;31236;55.026;61.042;2022-08-05T03:55:39;19.40;86.90
45489;DHT22;31236;55.026;61.042;2022-08-05T03:58:11;19.60;86.90
45489;DHT22;31236;55.026;61.042;2022-08-05T04:00:43;19.70;86.60
45489;DHT22;31236;55.026;61.042;2022-08-05T04:03:14;19.90;83.60
45489;DHT22;31236;55.026;61.042;2022-08-05T04:05:46;19.90;82.10
45489;DHT22;31236;55.026;61.042;2022-08-05T04:08:16;19.90;81.40
45489;DHT22;31236;55.026;61.042;2022-08-05T04:10:47;20.00;81.70
45489;DHT22;31236;55.026;61.042;2022-08-05T04:13:16;20.10;81.60
45489;DHT22;31236;55.026;61.042;2022-08-05T04:15:48;20.20;78.70
45489;DHT22;31236;55.026;61.042;2022-08-05T04:18:19;20.30;78.40
45489;DHT22;31236;55.026;61.042;2022-08-05T04:21:09;20.40;79.50
45489;DHT22;31236;55.026;61.042;2022-08-05T04:23:39;20.60;78.30
45489;DHT22;31236;55.026;61.042;2022-08-05T04:26:10;20.70;78.40
45489;DHT22;31236;55.026;61.042;2022-08-05T04:28:40;20.80;77.90
45489;DHT22;31236;55.026;61.042;2022-08-05T04:31:11;20.90;78.60
45489;DHT22;31236;55.026;61.042;2022-08-05T04:33:41;21.00;77.20
45489;DHT22;31236;55.026;61.042;2022-08-05T04:36:10;21.20;74.40
45489;DHT22;31236;55.026;61.042;2022-08-05T04:39:00;21.30;75.50
45489;DHT22;31236;55.026;61.042;2022-08-05T04:41:31;21.40;73.90
45489;DHT22;31236;55.026;61.042;2022-08-05T04:44:00;21.40;73.00
45489;DHT22;31236;55.026;61.042;2022-08-05T04:46:30;21.50;72.00
45489;DHT22;31236;55.026;61.042;2022-08-05T04:49:00;21.60;71.50
45489;DHT22;31236;55.026;61.042;2022-08-05T04:51:30;21.70;73.10
45489;DHT22;31236;55.026;61.042;2022-08-05T04:54:00;21.70;72.30
45489;DHT22;31236;55.026;61.042;2022-08-05T04:56:29;21.80;73.30
45489;DHT22;31236;55.026;61.042;2022-08-05T04:59:00;21.90;73.30
45489;DHT22;31236;55.026;61.042;2022-08-05T05:01:29;22.00;71.80
45489;DHT22;31236;55.026;61.042;2022-08-05T05:03:59;22.10;70.10
45489;DHT22;31236;55.026;61.042;2022-08-05T05:06:29;22.10;70.00
45489;DHT22;31236;55.026;61.042;2022-08-05T05:08:59;22.20;71.20
45489;DHT22;31236;55.026;61.042;2022-08-05T05:11:29;22.30;70.00
45489;DHT22;31236;55.026;61.042;2022-08-05T05:13:58;22.30;71.40
45489;DHT22;31236;55.026;61.042;2022-08-05T05:16:29;22.50;71.40
45489;DHT22;31236;55.026;61.042;2022-08-05T05:19:00;22.60;70.30
45489;DHT22;31236;55.026;61.042;2022-08-05T05:21:30;22.70;69.60
45489;DHT22;31236;55.026;61.042;2022-08-05T05:24:00;22.80;70.00
45489;DHT22;31236;55.026;61.042;2022-08-05T05:26:29;23.00;69.00
45489;DHT22;31236;55.026;61.042;2022-08-05T05:28:59;23.10;68.10
45489;DHT22;31236;55.026;61.042;2022-08-05T05:31:29;23.20;68.90
45489;DHT22;31236;55.026;61.042;2022-08-05T05:34:01;23.20;67.30
45489;DHT22;31236;55.026;61.042;2022-08-05T05:36:33;23.10;63.80
45489;DHT22;31236;55.026;61.042;2022-08-05T05:39:03;23.10;66.70
45489;DHT22;31236;55.026;61.042;2022-08-05T05:41:35;23.20;67.20
45489;DHT22;31236;55.026;61.042;2022-08-05T05:44:06;23.20;67.30
45489;DHT22;31236;55.026;61.042;2022-08-05T05:46:35;23.20;67.20
45489;DHT22;31236;55.026;61.042;2022-08-05T05:49:06;23.30;62.30
45489;DHT22;31236;55.026;61.042;2022-08-05T05:51:37;23.40;63.30
45489;DHT22;31236;55.026;61.042;2022-08-05T05:54:07;23.50;64.00
45489;DHT22;31236;55.026;61.042;2022-08-05T05:56:41;23.50;62.70
45489;DHT22;31236;55.026;61.042;2022-08-05T05:59:11;23.50;60.80
45489;DHT22;31236;55.026;61.042;2022-08-05T06:01:42;23.60;60.90
45489;DHT22;31236;55.026;61.042;2022-08-05T06:04:16;23.60;60.40
45489;DHT22;31236;55.026;61.042;2022-08-05T06:06:46;23.70;62.40
45489;DHT22;31236;55.026;61.042;2022-08-05T06:09:16;23.80;64.00
45489;DHT22;31236;55.026;61.042;2022-08-05T06:11:46;23.90;62.90
45489;DHT22;31236;55.026;61.042;2022-08-05T06:14:16;24.00;60.90
45489;DHT22;31236;55.026;61.042;2022-08-05T06:16:46;24.00;62.50
45489;DHT22;31236;55.026;61.042;2022-08-05T06:19:15;24.10;64.00
45489;DHT22;31236;55.026;61.042;2022-08-05T06:21:45;24.10;63.70
45489;DHT22;31236;55.026;61.042;2022-08-05T06:24:15;24.20;60.10
45489;DHT22;31236;55.026;61.042;2022-08-05T06:26:46;24.20;59.50
45489;DHT22;31236;55.026;61.042;2022-08-05T06:29:15;24.30;60.10
45489;DHT22;31236;55.026;61.042;2022-08-05T06:31:45;24.40;59.10
45489;DHT22;31236;55.026;61.042;2022-08-05T06:34:15;24.40;58.10
45489;DHT22;31236;55.026;61.042;2022-08-05T06:36:45;24.50;60.70
45489;DHT22;31236;55.026;61.042;2022-08-05T06:39:15;24.60;61.90
45489;DHT22;31236;55.026;61.042;2022-08-05T06:41:45;24.80;62.50
45489;DHT22;31236;55.026;61.042;2022-08-05T06:44:16;24.90;61.60
45489;DHT22;31236;55.026;61.042;2022-08-05T06:46:46;24.80;61.20
45489;DHT22;31236;55.026;61.042;2022-08-05T06:49:16;24.80;57.90
45489;DHT22;31236;55.026;61.042;2022-08-05T06:51:46;24.80;57.10
45489;DHT22;31236;55.026;61.042;2022-08-05T06:54:16;24.80;56.70
45489;DHT22;31236;55.026;61.042;2022-08-05T06:56:46;24.90;58.40
45489;DHT22;31236;55.026;61.042;2022-08-05T06:59:16;24.90;58.50
45489;DHT22;31236;55.026;61.042;2022-08-05T07:01:46;25.00;55.90
45489;DHT22;31236;55.026;61.042;2022-08-05T07:04:16;25.00;56.50
45489;DHT22;31236;55.026;61.042;2022-08-05T07:06:46;25.00;57.80
45489;DHT22;31236;55.026;61.042;2022-08-05T07:09:16;25.00;58.20
45489;DHT22;31236;55.026;61.042;2022-08-05T07:11:46;25.00;58.00
45489;DHT22;31236;55.026;61.042;2022-08-05T07:14:15;25.10;58.80
45489;DHT22;31236;55.026;61.042;2022-08-05T07:17:05;25.00;59.40
45489;DHT22;31236;55.026;61.042;2022-08-05T07:19:35;25.10;59.20
45489;DHT22;31236;55.026;61.042;2022-08-05T07:22:05;25.10;55.70
45489;DHT22;31236;55.026;61.042;2022-08-05T07:24:35;25.10;53.20
45489;DHT22;31236;55.026;61.042;2022-08-05T07:27:05;25.00;57.30
45489;DHT22;31236;55.026;61.042;2022-08-05T07:29:35;25.10;57.20
45489;DHT22;31236;55.026;61.042;2022-08-05T07:32:06;25.10;58.80
45489;DHT22;31236;55.026;61.042;2022-08-05T07:34:36;25.10;58.90
45489;DHT22;31236;55.026;61.042;2022-08-05T07:37:06;25.20;58.30
45489;DHT22;31236;55.026;61.042;2022-08-05T07:39:35;25.30;58.90
45489;DHT22;31236;55.026;61.042;2022-08-05T07:42:07;25.30;58.00
45489;DHT22;31236;55.026;61.042;2022-08-05T07:44:36;25.30;58.10
45489;DHT22;31236;55.026;61.042;2022-08-05T07:47:06;25.30;56.60
45489;DHT22;31236;55.026;61.042;2022-08-05T07:49:36;25.40;58.40
45489;DHT22;31236;55.026;61.042;2022-08-05T07:52:06;25.50;57.70
45489;DHT22;31236;55.026;61.042;2022-08-05T07:54:36;25.40;57.80
45489;DHT22;31236;55.026;61.042;2022-08-05T07:57:05;25.40;58.30
45489;DHT22;31236;55.026;61.042;2022-08-05T07:59:35;25.40;57.20
45489;DHT22;31236;55.026;61.042;2022-08-05T08:02:05;25.40;53.50
45489;DHT22;31236;55.026;61.042;2022-08-05T08:04:34;25.50;57.40
45489;DHT22;31236;55.026;61.042;2022-08-05T08:07:05;25.50;57.70
45489;DHT22;31236;55.026;61.042;2022-08-05T08:09:35;25.60;56.00
45489;DHT22;31236;55.026;61.042;2022-08-05T08:12:05;25.60;58.90
45489;DHT22;31236;55.026;61.042;2022-08-05T08:14:35;25.60;57.60
45489;DHT22;31236;55.026;61.042;2022-08-05T08:17:05;25.70;56.80
45489;DHT22;31236;55.026;61.042;2022-08-05T08:19:56;25.70;56.10
45489;DHT22;31236;55.026;61.042;2022-08-05T08:22:26;25.80;55.60
45489;DHT22;31236;55.026;61.042;2022-08-05T08:24:56;25.80;57.90
45489;DHT22;31236;55.026;61.042;2022-08-05T08:27:26;25.90;55.10
45489;DHT22;31236;55.026;61.042;2022-08-05T08:29:56;25.90;51.60
45489;DHT22;31236;55.026;61.042;2022-08-05T08:32:26;26.00;52.40
45489;DHT22;31236;55.026;61.042;2022-08-05T08:34:57;26.00;52.80
45489;DHT22;31236;55.026;61.042;2022-08-05T08:37:26;26.10;54.00
45489;DHT22;31236;55.026;61.042;2022-08-05T08:39:56;26.10;51.10
45489;DHT22;31236;55.026;61.042;2022-08-05T08:42:28;26.10;49.90
45489;DHT22;31236;55.026;61.042;2022-08-05T08:44:57;26.10;52.10
45489;DHT22;31236;55.026;61.042;2022-08-05T08:47:27;26.10;53.50
45489;DHT22;31236;55.026;61.042;2022-08-05T08:49:58;26.10;54.90
45489;DHT22;31236;55.026;61.042;2022-08-05T08:52:32;26.00;57.40
45489;DHT22;31236;55.026;61.042;2022-08-05T08:55:04;26.10;57.30
45489;DHT22;31236;55.026;61.042;2022-08-05T08:57:34;26.10;55.40
45489;DHT22;31236;55.026;61.042;2022-08-05T09:00:05;26.10;57.60
45489;DHT22;31236;55.026;61.042;2022-08-05T09:02:36;26.10;56.00
45489;DHT22;31236;55.026;61.042;2022-08-05T09:05:08;26.10;56.50
45489;DHT22;31236;55.026;61.042;2022-08-05T09:07:37;26.20;56.20
45489;DHT22;31236;55.026;61.042;2022-08-05T09:10:07;26.30;57.30
45489;DHT22;31236;55.026;61.042;2022-08-05T09:12:38;26.30;53.80
45489;DHT22;31236;55.026;61.042;2022-08-05T09:15:09;26.40;51.90
45489;DHT22;31236;55.026;61.042;2022-08-05T09:17:39;26.50;54.50
45489;DHT22;31236;55.026;61.042;2022-08-05T09:20:10;26.60;49.40
45489;DHT22;31236;55.026;61.042;2022-08-05T09:25:50;26.70;48.90
45489;DHT22;31236;55.026;61.042;2022-08-05T09:28:22;26.70;49.50
45489;DHT22;31236;55.026;61.042;2022-08-05T09:30:55;26.70;47.30
45489;DHT22;31236;55.026;61.042;2022-08-05T09:33:26;26.70;48.90
45489;DHT22;31236;55.026;61.042;2022-08-05T09:36:16;26.70;48.40
45489;DHT22;31236;55.026;61.042;2022-08-05T09:39:07;26.70;48.60
45489;DHT22;31236;55.026;61.042;2022-08-05T09:44:50;26.70;52.90
45489;DHT22;31236;55.026;61.042;2022-08-05T09:47:22;26.70;50.70
45489;DHT22;31236;55.026;61.042;2022-08-05T09:49:55;26.70;51.90
45489;DHT22;31236;55.026;61.042;2022-08-05T09:52:44;26.70;48.80
45489;DHT22;31236;55.026;61.042;2022-08-05T09:55:14;26.70;49.40
45489;DHT22;31236;55.026;61.042;2022-08-05T09:57:45;26.70;53.10
45489;DHT22;31236;55.026;61.042;2022-08-05T10:00:17;26.80;50.60
45489;DHT22;31236;55.026;61.042;2022-08-05T10:02:50;26.80;49.90
45489;DHT22;31236;55.026;61.042;2022-08-05T10:05:23;26.90;48.60
45489;DHT22;31236;55.026;61.042;2022-08-05T10:07:54;26.90;48.40
45489;DHT22;31236;55.026;61.042;2022-08-05T10:10:26;27.00;49.70
45489;DHT22;31236;55.026;61.042;2022-08-05T10:12:58;27.10;48.00
45489;DHT22;31236;55.026;61.042;2022-08-05T10:18:21;27.20;46.90
45489;DHT22;31236;55.026;61.042;2022-08-05T10:20:56;27.30;48.60
45489;DHT22;31236;55.026;61.042;2022-08-05T10:23:45;27.30;47.30
45489;DHT22;31236;55.026;61.042;2022-08-05T10:26:16;27.40;47.30
45489;DHT22;31236;55.026;61.042;2022-08-05T10:28:46;27.40;49.50
45489;DHT22;31236;55.026;61.042;2022-08-05T10:31:17;27.40;47.60
45489;DHT22;31236;55.026;61.042;2022-08-05T10:33:49;27.40;46.20
45489;DHT22;31236;55.026;61.042;2022-08-05T10:36:19;27.50;44.10
45489;DHT22;31236;55.026;61.042;2022-08-05T10:38:50;27.50;43.60
45489;DHT22;31236;55.026;61.042;2022-08-05T10:50:15;27.60;46.00
45489;DHT22;31236;55.026;61.042;2022-08-05T10:52:47;27.70;44.00
45489;DHT22;31236;55.026;61.042;2022-08-05T10:55:38;27.70;46.80
45489;DHT22;31236;55.026;61.042;2022-08-05T10:58:10;27.70;44.60
45489;DHT22;31236;55.026;61.042;2022-08-05T11:03:32;27.70;43.40
45489;DHT22;31236;55.026;61.042;2022-08-05T11:09:46;27.70;42.60
45489;DHT22;31236;55.026;61.042;2022-08-05T11:11:46;27.60;40.20
45489;DHT22;31236;55.026;61.042;2022-08-05T11:14:35;27.70;42.40
45489;DHT22;31236;55.026;61.042;2022-08-05T11:23:42;27.70;39.30
45489;DHT22;31236;55.026;61.042;2022-08-05T11:26:32;27.80;37.60
45489;DHT22;31236;55.026;61.042;2022-08-05T11:29:04;27.80;36.60
45489;DHT22;31236;55.026;61.042;2022-08-05T11:31:35;27.80;35.60
45489;DHT22;31236;55.026;61.042;2022-08-05T11:34:06;27.80;36.40
45489;DHT22;31236;55.026;61.042;2022-08-05T11:36:56;27.90;36.30
45489;DHT22;31236;55.026;61.042;2022-08-05T11:39:46;27.90;39.10
45489;DHT22;31236;55.026;61.042;2022-08-05T11:42:21;27.80;38.20
45489;DHT22;31236;55.026;61.042;2022-08-05T11:44:50;27.90;38.80
45489;DHT22;31236;55.026;61.042;2022-08-05T11:47:23;28.00;39.20
45489;DHT22;31236;55.026;61.042;2022-08-05T11:50:12;28.10;40.20
45489;DHT22;31236;55.026;61.042;2022-08-05T11:52:42;28.20;37.70
45489;DHT22;31236;55.026;61.042;2022-08-05T11:55:12;28.20;40.60
45489;DHT22;31236;55.026;61.042;2022-08-05T11:58:04;28.20;39.40
45489;DHT22;31236;55.026;61.042;2022-08-05T12:00:34;28.40;38.30
45489;DHT22;31236;55.026;61.042;2022-08-05T12:03:23;28.40;38.50
45489;DHT22;31236;55.026;61.042;2022-08-05T12:05:56;28.40;39.80
45489;DHT22;31236;55.026;61.042;2022-08-05T12:08:25;28.40;38.20
45489;DHT22;31236;55.026;61.042;2022-08-05T12:10:57;28.40;39.80
45489;DHT22;31236;55.026;61.042;2022-08-05T12:13:27;28.40;37.80
45489;DHT22;31236;55.026;61.042;2022-08-05T12:15:59;28.30;37.40
45489;DHT22;31236;55.026;61.042;2022-08-05T12:18:48;28.20;38.60
45489;DHT22;31236;55.026;61.042;2022-08-05T12:27:04;28.20;40.30
45489;DHT22;31236;55.026;61.042;2022-08-05T12:29:34;28.20;38.60
45489;DHT22;31236;55.026;61.042;2022-08-05T12:32:05;28.20;37.30
45489;DHT22;31236;55.026;61.042;2022-08-05T12:34:36;28.20;37.80
45489;DHT22;31236;55.026;61.042;2022-08-05T12:37:08;28.10;38.20
45489;DHT22;31236;55.026;61.042;2022-08-05T12:39:40;28.00;39.30
45489;DHT22;31236;55.026;61.042;2022-08-05T12:42:15;28.00;40.30
45489;DHT22;31236;55.026;61.042;2022-08-05T12:44:44;28.10;41.50
45489;DHT22;31236;55.026;61.042;2022-08-05T12:50:22;28.10;41.50
45489;DHT22;31236;55.026;61.042;2022-08-05T12:53:14;28.10;43.00
45489;DHT22;31236;55.026;61.042;2022-08-05T12:55:45;28.10;39.90
45489;DHT22;31236;55.026;61.042;2022-08-05T12:58:22;28.10;43.40
45489;DHT22;31236;55.026;61.042;2022-08-05T13:00:47;28.10;40.40
45489;DHT22;31236;55.026;61.042;2022-08-05T13:03:18;28.20;43.10
45489;DHT22;31236;55.026;61.042;2022-08-05T13:05:48;28.20;43.40
45489;DHT22;31236;55.026;61.042;2022-08-05T13:08:18;28.20;43.70
45489;DHT22;31236;55.026;61.042;2022-08-05T13:10:48;28.20;41.60
45489;DHT22;31236;55.026;61.042;2022-08-05T13:13:37;28.20;42.50
45489;DHT22;31236;55.026;61.042;2022-08-05T13:19:00;28.10;40.10
45489;DHT22;31236;55.026;61.042;2022-08-05T13:21:30;28.00;43.20
45489;DHT22;31236;55.026;61.042;2022-08-05T13:23:59;28.00;41.90
45489;DHT22;31236;55.026;61.042;2022-08-05T13:26:30;28.00;41.50
45489;DHT22;31236;55.026;61.042;2022-08-05T13:29:00;28.00;40.70
45489;DHT22;31236;55.026;61.042;2022-08-05T13:31:30;27.90;41.10
45489;DHT22;31236;55.026;61.042;2022-08-05T13:34:00;27.90;41.30
45489;DHT22;31236;55.026;61.042;2022-08-05T13:36:30;27.80;41.10
45489;DHT22;31236;55.026;61.042;2022-08-05T13:39:01;27.80;42.10
45489;DHT22;31236;55.026;61.042;2022-08-05T13:41:31;27.90;42.30
45489;DHT22;31236;55.026;61.042;2022-08-05T13:44:02;27.90;40.70
45489;DHT22;31236;55.026;61.042;2022-08-05T13:46:32;27.90;39.90
45489;DHT22;31236;55.026;61.042;2022-08-05T13:49:02;27.90;40.40
45489;DHT22;31236;55.026;61.042;2022-08-05T13:51:33;27.90;41.30
45489;DHT22;31236;55.026;61.042;2022-08-05T13:54:03;27.90;42.70
45489;DHT22;31236;55.026;61.042;2022-08-05T13:56:33;27.90;41.50
45489;DHT22;31236;55.026;61.042;2022-08-05T13:59:03;27.90;44.40
45489;DHT22;31236;55.026;61.042;2022-08-05T14:01:35;28.00;46.50
45489;DHT22;31236;55.026;61.042;2022-08-05T14:04:05;28.00;50.00
45489;DHT22;31236;55.026;61.042;2022-08-05T14:06:54;28.00;52.20
45489;DHT22;31236;55.026;61.042;2022-08-05T14:09:24;27.90;51.90
45489;DHT22;31236;55.026;61.042;2022-08-05T14:11:54;27.90;50.80
45489;DHT22;31236;55.026;61.042;2022-08-05T14:14:23;27.90;52.20
45489;DHT22;31236;55.026;61.042;2022-08-05T14:16:53;27.80;51.00
45489;DHT22;31236;55.026;61.042;2022-08-05T14:19:23;27.70;50.10
45489;DHT22;31236;55.026;61.042;2022-08-05T14:21:53;27.70;52.60
45489;DHT22;31236;55.026;61.042;2022-08-05T14:24:23;27.60;52.40
45489;DHT22;31236;55.026;61.042;2022-08-05T14:26:53;27.50;53.10
45489;DHT22;31236;55.026;61.042;2022-08-05T14:29:22;27.30;52.80
45489;DHT22;31236;55.026;61.042;2022-08-05T14:31:53;27.20;52.60
45489;DHT22;31236;55.026;61.042;2022-08-05T14:34:22;27.00;54.50
45489;DHT22;31236;55.026;61.042;2022-08-05T14:36:52;26.90;55.50
45489;DHT22;31236;55.026;61.042;2022-08-05T14:39:22;26.70;56.50
45489;DHT22;31236;55.026;61.042;2022-08-05T14:41:52;26.40;57.00
45489;DHT22;31236;55.026;61.042;2022-08-05T14:44:22;26.20;57.20
45489;DHT22;31236;55.026;61.042;2022-08-05T14:46:52;25.90;58.10
45489;DHT22;31236;55.026;61.042;2022-08-05T14:49:22;25.70;58.00
45489;DHT22;31236;55.026;61.042;2022-08-05T14:51:52;25.50;57.90
45489;DHT22;31236;55.026;61.042;2022-08-05T14:54:22;25.30;59.00
45489;DHT22;31236;55.026;61.042;2022-08-05T14:56:54;25.10;59.80
45489;DHT22;31236;55.026;61.042;2022-08-05T14:59:24;24.90;60.10
45489;DHT22;31236;55.026;61.042;2022-08-05T15:01:57;24.70;60.70
45489;DHT22;31236;55.026;61.042;2022-08-05T15:04:27;24.50;59.30
45489;DHT22;31236;55.026;61.042;2022-08-05T15:06:59;24.40;61.80
45489;DHT22;31236;55.026;61.042;2022-08-05T15:09:29;24.20;62.30
45489;DHT22;31236;55.026;61.042;2022-08-05T15:11:59;24.10;62.80
45489;DHT22;31236;55.026;61.042;2022-08-05T15:14:31;23.90;63.30
45489;DHT22;31236;55.026;61.042;2022-08-05T15:17:04;23.80;63.70
45489;DHT22;31236;55.026;61.042;2022-08-05T15:19:36;23.70;64.40
45489;DHT22;31236;55.026;61.042;2022-08-05T15:22:08;23.50;64.80
45489;DHT22;31236;55.026;61.042;2022-08-05T15:24:40;23.40;65.10
45489;DHT22;31236;55.026;61.042;2022-08-05T15:27:11;23.20;65.00
45489;DHT22;31236;55.026;61.042;2022-08-05T15:29:41;23.10;65.80
45489;DHT22;31236;55.026;61.042;2022-08-05T15:32:13;23.10;66.10
45489;DHT22;31236;55.026;61.042;2022-08-05T15:34:43;22.90;66.00
45489;DHT22;31236;55.026;61.042;2022-08-05T15:37:13;22.80;66.60
45489;DHT22;31236;55.026;61.042;2022-08-05T15:39:44;22.70;67.10
45489;DHT22;31236;55.026;61.042;2022-08-05T15:42:16;22.60;67.20
45489;DHT22;31236;55.026;61.042;2022-08-05T15:44:47;22.50;66.90
45489;DHT22;31236;55.026;61.042;2022-08-05T15:47:20;22.40;67.30
45489;DHT22;31236;55.026;61.042;2022-08-05T15:49:51;22.30;67.20
45489;DHT22;31236;55.026;61.042;2022-08-05T15:52:21;22.20;67.70
45489;DHT22;31236;55.026;61.042;2022-08-05T15:54:52;22.10;67.50
45489;DHT22;31236;55.026;61.042;2022-08-05T15:57:24;22.00;68.00
45489;DHT22;31236;55.026;61.042;2022-08-05T15:59:56;22.00;68.60
45489;DHT22;31236;55.026;61.042;2022-08-05T16:02:28;21.90;68.50
45489;DHT22;31236;55.026;61.042;2022-08-05T16:04:59;21.80;68.80
45489;DHT22;31236;55.026;61.042;2022-08-05T16:07:29;21.70;68.20
45489;DHT22;31236;55.026;61.042;2022-08-05T16:10:01;21.60;69.30
45489;DHT22;31236;55.026;61.042;2022-08-05T16:12:32;21.60;68.70
45489;DHT22;31236;55.026;61.042;2022-08-05T16:15:02;21.40;68.40
45489;DHT22;31236;55.026;61.042;2022-08-05T16:17:32;21.40;69.00
45489;DHT22;31236;55.026;61.042;2022-08-05T16:20:05;21.30;69.10
45489;DHT22;31236;55.026;61.042;2022-08-05T16:22:35;21.30;69.20
45489;DHT22;31236;55.026;61.042;2022-08-05T16:25:05;21.20;69.20
45489;DHT22;31236;55.026;61.042;2022-08-05T16:27:37;21.10;69.80
45489;DHT22;31236;55.026;61.042;2022-08-05T16:30:08;21.00;70.00
45489;DHT22;31236;55.026;61.042;2022-08-05T16:32:40;21.00;69.70
45489;DHT22;31236;55.026;61.042;2022-08-05T16:35:12;20.90;69.20
45489;DHT22;31236;55.026;61.042;2022-08-05T16:37:42;20.80;69.70
45489;DHT22;31236;55.026;61.042;2022-08-05T16:40:12;20.70;70.40
45489;DHT22;31236;55.026;61.042;2022-08-05T16:42:45;20.60;70.30
45489;DHT22;31236;55.026;61.042;2022-08-05T16:45:19;20.50;70.70
45489;DHT22;31236;55.026;61.042;2022-08-05T16:47:49;20.50;70.70
45489;DHT22;31236;55.026;61.042;2022-08-05T16:50:19;20.40;70.70
45489;DHT22;31236;55.026;61.042;2022-08-05T16:52:49;20.30;70.60
45489;DHT22;31236;55.026;61.042;2022-08-05T16:55:19;20.20;71.30
45489;DHT22;31236;55.026;61.042;2022-08-05T16:57:51;20.10;72.00
45489;DHT22;31236;55.026;61.042;2022-08-05T17:00:24;20.10;71.60